EKSN/CNL METAR and TAF weather

Enter ICAO airport designator
Station Type Date Time Source
EKSN METAR 2018/01/22 12:50 UTC NOAA

EKSN 221250Z 14010KT 9000 SCT016 BKN070 01/M00 Q1010


Station Type Date Time Source
EKSN Decoded METAR 2018/01/22 12:50 UTC NOAA

Sindal Flyveplads, Denmark (EKSN) 57-30N 010-13E 28M
Jan 22, 2018 - 07:50 AM EST / 2018.01.22 1250 UTC
Wind: from the SE (140 degrees) at 12 MPH (10 KT):0
Visibility: 5 mile(s):0
Sky conditions: mostly cloudy
Temperature: 33 F (1 C)
Windchill: 24 F (-4 C):1
Dew Point: 32 F (0 C)
Relative Humidity: 93%
Pressure (altimeter): 29.83 in. Hg (1010 hPa)
ob: EKSN 221250Z 14010KT 9000 SCT016 BKN070 01/M00 Q1010
cycle: 13

Station Type Date Time Source
EKSN TAF UTC NOAA

Error!


Example: see airport list